CheckWX is a tool to help pilots better visualize weather data.  It is not intended as a substitute for an official pre-flight weather briefing.

08:49:17 UTC

4M9 METAR
Corning Municipal Airport
Corning, Arkansas, USA
Current

34 mins ago

K4M9 240815Z AUTO 13009KT 3SM BR OVC005 08/08 A2990 RMK AO2 PWINO
Observed
Feb-24 @ 08:15 UTC
Wind
  • 130° at 9 KTS
Visibility
3 SM
Flight Rules
IFR
Conditions
Mist
Cloud Levels
  • Overcast at 500' AGL
Temperature
C / 46°F
Dewpoint
C / 46°F
Humidity
100%
Altimeter
29.9" Hg
Pressure
1012.52 hPa
Previous

54 mins ago

K4M9 240755Z AUTO 13008KT 3SM BR OVC006 08/08 A2992 RMK AO2 PWINO
Observed
Feb-24 @ 07:55 UTC
Wind
  • 130° at 8 KTS
Visibility
3 SM
Flight Rules
IFR
Conditions
Mist
Cloud Levels
  • Overcast at 600' AGL
Temperature
C / 46°F
Dewpoint
C / 46°F
Humidity
100%
Altimeter
29.92" Hg
Pressure
1013.22 hPa
Previous

1 hour ago

K4M9 240735Z AUTO 14010KT 3SM BR BKN006 OVC009 08/08 A2992 RMK AO2 PWINO
Observed
Feb-24 @ 07:35 UTC
Wind
  • 140° at 10 KTS
Visibility
3 SM
Flight Rules
IFR
Conditions
Mist
Cloud Levels
  • Broken at 600' AGL
  • Overcast at 900' AGL
Temperature
C / 46°F
Dewpoint
C / 46°F
Humidity
100%
Altimeter
29.92" Hg
Pressure
1013.22 hPa